KCRW Airport Diagram

We have created a template for each of the higher traffic airports in the vZID airspace. They include KCMH, KCRW, KCVG, KDAY, KIND, KLEX and KSDF. You wil find usefull information including the airport diagram, weather, and specific airport procedures.

KCRW Weather

[Source: ADDS]
METAR
KCRW 190654Z 00000KT 6SM BR FEW001 02/02 A3037 RMK AO2 SLP287 VLY FG T00220017 =
KCRW 190520Z 1906/2006 00000KT P6SM SKC TEMPO 1909/1913 4SM BR FM191600 21006KT P6SM FEW240 FM200200 23006KT P6SM OVC045 FM200500 25007KT 3SM SHRA OVC030
TAF
KCRW 190520Z 1906/2006 00000KT P6SM SKC TEMPO 1909/1913 4SM BR FM191600 21006KT P6SM FEW240 FM200200 23006KT P6SM OVC045 FM200500 25007KT 3SM SHRA OVC030 =

KCRW Operations

Calm wind runway up to 10kts: Rw 23

 

JSN Epic template designed by JoomlaShine.com